Мякит

СКИДКИ НА СМАРТФОНЫ!

Карта отелей и гостиниц, располагающихся рядом с аэропортом Мякит :

Мякит Магаданская область 61° 24' 16.29" N, 152° 5' 2.1516" E
Код аэродрома ИКАО
HD0R
Код аэродрома RU
ХД0Р
Координаты
N61.40452° E152.08393°
Превышение над уровнем моря
680
Основная полоса
Курс магнитный
Длина основной ВПП
Ширина основной ВПП
Покрытие основной ВПП
Освещение ВПП
Тип: 
Вертодром
Класс аэродрома: 
Принадлежность: 
ГА
Статус: 
Недействующий
Сайт: 
E-mail аэродрома: 
Страна: 
Россия
Регион: 
Магаданская область
Город: 
Дополнительная информация: 
Горный.

Скидки на навигаторы!

Найти трансфер

С помощью этой формы Вы можете найти трансфер из аэропорта Мякит в город, аэропорт или вокзал:

Погода в аэропортах:

Авиационная погода в Миккели

Регион: 
Погода METAR: 
EFMI 190420Z AUTO 12003KT 9999 VCSH //////CB 20/19 Q1020
Время наблюдения
2022-08-19T04:20:00Z
Температура C
20.0
Точка росы
19.0
Направление ветра
120
Скорость ветра (узлы)
3
Метео видимость
6.21
Облачность
Нижняя граница облачности (футы)
Явления погоды
VCSH
Условия полета

Авиационная погода в Богашево

Регион: 
Погода METAR: 
UNTT 190400Z 24003MPS 0750 0650W R21/0750U FG VV001 11/11 Q1011 R21/290050 NOSIG RMK QBB050 QFE743
Время наблюдения
2022-08-19T04:00:00Z
Температура C
11.0
Точка росы
11.0
Направление ветра
240
Скорость ветра (узлы)
6
Метео видимость
0.47
Облачность
OVX
Нижняя граница облачности (футы)
0
Явления погоды
FG
Условия полета
LIFR
Аэропорт подробнее: 
FG – туман (небо не видно, температура воздуха выше нуля или ноль);

Авиационная погода в Братске

Регион: 
Погода METAR: 
UIBB 190400Z 25006MPS 220V290 9000 -SHRA BKN006 OVC019CB 09/09 Q1005 R30/290150 NOSIG RMK QBB190 MT OBSC QFE711/0948
Время наблюдения
2022-08-19T04:00:00Z
Температура C
9.0
Точка росы
9.0
Направление ветра
250
Скорость ветра (узлы)
12
Метео видимость
5.59
Облачность
BKN
OVC
Нижняя граница облачности (футы)
600
1900
Явления погоды
-SHRA
Условия полета
IFR
Аэропорт подробнее: 
BKN – значительная (рассеянная, разорванная) облачность; OVC – сплошная облачность;
-SHRA - слабый ливневой дождь;

Авиационная погода в Липецке

Регион: 
Погода METAR: 
UUOL 190400Z 06009MPS 9999 -RA BKN009 16/16 Q1016 R33/290150 NOSIG
Время наблюдения
2022-08-19T04:00:00Z
Температура C
16.0
Точка росы
16.0
Направление ветра
60
Скорость ветра (узлы)
17
Метео видимость
6.21
Облачность
BKN
Нижняя граница облачности (футы)
900
Явления погоды
-RA
Условия полета
IFR
Аэропорт подробнее: 
BKN – значительная (рассеянная, разорванная) облачность;
-RA - слабый дождь;